Time;durP1;ratioP1;P1;durP2;ratioP2;P2;SDS_P1;SDS_P2;PMS_P1;PMS_P2;Temp;Humidity;BMP_temperature;BMP_pressure;BME280_temperature;BME280_humidity;BME280_pressure;Samples;Min_cycle;Max_cycle;Signal;HPM_P1;HPM_P2
2022/01/07 00:00:17;;;;;;;19.70;11.00;;;2.00;84.50;;;;;;4950745;28;20567;-53
2022/01/07 00:02:50;;;;;;;18.83;11.67;;;2.00;84.60;;;;;;4955237;28;20448;-53
2022/01/07 00:05:17;;;;;;;19.63;10.77;;;1.90;84.70;;;;;;4953557;28;20510;-53
2022/01/07 00:07:45;;;;;;;17.53;10.97;;;1.90;84.80;;;;;;4952840;28;20537;-53
2022/01/07 00:10:13;;;;;;;16.27;10.20;;;1.90;84.70;;;;;;4953248;28;20490;-52
2022/01/07 00:12:40;;;;;;;16.33;9.60;;;1.90;84.70;;;;;;4944515;28;20459;-53
2022/01/07 00:15:07;;;;;;;17.10;10.00;;;1.90;84.70;;;;;;4949611;28;20473;-53
2022/01/07 00:17:34;;;;;;;15.67;9.50;;;1.90;84.90;;;;;;4952409;28;20863;-54
2022/01/07 00:20:09;;;;;;;13.27;8.70;;;1.90;84.90;;;;;;4953224;28;20538;-53
2022/01/07 00:22:37;;;;;;;14.70;9.53;;;1.80;85.00;;;;;;4952545;28;20470;-53
2022/01/07 00:25:04;;;;;;;12.63;7.20;;;1.90;84.90;;;;;;4955561;28;20975;-53
2022/01/07 00:27:31;;;;;;;15.60;9.03;;;1.90;84.80;;;;;;4949834;28;20473;-53
2022/01/07 00:29:58;;;;;;;12.10;8.00;;;1.90;84.80;;;;;;4957277;28;20458;-53
2022/01/07 00:32:25;;;;;;;22.60;8.30;;;1.90;84.80;;;;;;4953116;28;20737;-53
2022/01/07 00:34:51;;;;;;;13.60;8.43;;;1.80;84.90;;;;;;4954344;28;20473;-53
2022/01/07 00:37:18;;;;;;;10.40;7.80;;;1.80;85.00;;;;;;4949093;28;20499;-53
2022/01/07 00:39:47;;;;;;;13.70;7.73;;;1.80;85.10;;;;;;4947527;28;21017;-53
2022/01/07 00:42:14;;;;;;;13.60;8.13;;;1.80;85.20;;;;;;4953354;28;20454;-53
2022/01/07 00:44:40;;;;;;;11.33;7.33;;;1.80;85.00;;;;;;4950919;28;20454;-53
2022/01/07 00:47:07;;;;;;;9.47;6.40;;;1.80;84.80;;;;;;4947056;28;20471;-52
2022/01/07 00:49:34;;;;;;;13.70;8.67;;;1.80;84.90;;;;;;4954973;28;20456;-53
2022/01/07 00:52:02;;;;;;;9.73;6.97;;;1.80;85.00;;;;;;4955824;28;20981;-53
2022/01/07 00:54:29;;;;;;;11.53;6.57;;;1.80;84.90;;;;;;4954686;28;20461;-53
2022/01/07 00:56:55;;;;;;;7.63;6.17;;;1.80;84.70;;;;;;4948284;28;20857;-53
2022/01/07 00:59:22;;;;;;;8.23;6.63;;;1.80;84.70;;;;;;4956263;28;20459;-54
2022/01/07 01:01:49;;;;;;;9.90;5.97;;;1.80;85.00;;;;;;4957889;28;20450;-53
2022/01/07 01:04:36;;;;;;;11.27;6.53;;;1.80;85.30;;;;;;4970399;28;20450;-53
2022/01/07 01:07:03;;;;;;;10.13;5.97;;;1.80;85.10;;;;;;4954936;28;20940;-53
2022/01/07 01:09:30;;;;;;;14.20;6.47;;;1.80;85.20;;;;;;4959178;28;20461;-52
2022/01/07 01:11:57;;;;;;;9.87;7.20;;;1.70;85.30;;;;;;4953875;28;20973;-53
2022/01/07 01:14:24;;;;;;;8.17;6.00;;;1.70;85.40;;;;;;4956878;28;20554;-53
2022/01/07 01:16:52;;;;;;;12.10;6.30;;;1.80;85.40;;;;;;4953592;28;20482;-52
2022/01/07 01:19:19;;;;;;;8.07;7.40;;;1.70;85.30;;;;;;4968439;28;20964;-53
2022/01/07 01:21:46;;;;;;;10.07;5.77;;;1.80;85.50;;;;;;4972413;28;20438;-53
2022/01/07 01:24:12;;;;;;;8.53;6.43;;;1.80;85.50;;;;;;4952376;28;21072;-53
2022/01/07 01:26:39;;;;;;;11.57;5.87;;;1.80;85.30;;;;;;4952256;28;20463;-53
2022/01/07 01:29:06;;;;;;;8.40;5.20;;;1.90;85.20;;;;;;4951605;28;20453;-53
2022/01/07 01:31:35;;;;;;;8.70;5.33;;;1.90;85.00;;;;;;4954393;28;21039;-52
2022/01/07 01:34:04;;;;;;;6.20;5.20;;;1.90;85.10;;;;;;4955760;28;20451;-53
2022/01/07 01:36:32;;;;;;;14.17;6.20;;;1.90;85.20;;;;;;4954160;28;20475;-53
2022/01/07 01:38:59;;;;;;;7.43;5.53;;;2.00;84.90;;;;;;4954006;28;20478;-53
2022/01/07 01:41:26;;;;;;;10.67;6.20;;;1.90;85.00;;;;;;4968181;28;20920;-52
2022/01/07 01:43:54;;;;;;;8.83;5.70;;;1.90;85.30;;;;;;4954306;28;20469;-52
2022/01/07 01:46:20;;;;;;;10.70;6.60;;;2.00;85.20;;;;;;4950597;28;20466;-53
2022/01/07 01:48:47;;;;;;;11.80;6.57;;;1.90;85.10;;;;;;4966117;28;20462;-53
2022/01/07 01:51:15;;;;;;;14.43;6.47;;;1.80;85.30;;;;;;4952048;28;20473;-53
2022/01/07 01:53:42;;;;;;;8.97;6.07;;;1.80;85.40;;;;;;4952445;28;20501;-53
2022/01/07 01:56:09;;;;;;;10.17;7.10;;;1.90;85.20;;;;;;4950987;28;20463;-52
2022/01/07 01:58:36;;;;;;;16.57;7.40;;;1.90;85.40;;;;;;4956075;28;20493;-53
2022/01/07 02:01:03;;;;;;;12.10;6.83;;;1.90;85.40;;;;;;4952692;28;20482;-53
2022/01/07 02:03:30;;;;;;;11.23;6.83;;;1.90;85.20;;;;;;4947379;28;20466;-52
2022/01/07 02:05:57;;;;;;;9.57;6.00;;;1.90;85.20;;;;;;4952779;28;20458;-53
2022/01/07 02:08:24;;;;;;;11.50;5.90;;;1.90;85.20;;;;;;4950304;28;20497;-54
2022/01/07 02:10:51;;;;;;;10.27;6.90;;;1.90;85.20;;;;;;4952027;28;20973;-53
2022/01/07 02:13:19;;;;;;;7.00;5.00;;;1.90;85.40;;;;;;4949548;28;20561;-53
2022/01/07 02:15:46;;;;;;;8.80;5.43;;;1.90;85.40;;;;;;4963923;28;20477;-53
2022/01/07 02:18:17;;;;;;;23.40;6.60;;;1.90;85.20;;;;;;4950682;28;20495;-53
2022/01/07 02:20:45;;;;;;;9.90;6.00;;;1.90;85.20;;;;;;4954657;28;21075;-53
2022/01/07 02:23:11;;;;;;;10.47;5.93;;;1.90;85.40;;;;;;4942023;28;20828;-53
2022/01/07 02:25:38;;;;;;;10.73;6.17;;;1.80;85.50;;;;;;4914476;28;1190171;-53
2022/01/07 02:28:06;;;;;;;10.47;6.00;;;1.80;85.70;;;;;;4955152;28;20227;-53
2022/01/07 02:30:32;;;;;;;12.80;6.30;;;1.90;85.60;;;;;;4953605;28;20474;-53
2022/01/07 02:32:59;;;;;;;10.93;6.33;;;1.90;85.60;;;;;;4953920;28;20476;-54
2022/01/07 02:35:30;;;;;;;9.47;7.00;;;1.90;85.60;;;;;;4950544;28;20510;-54
2022/01/07 02:37:57;;;;;;;13.90;8.07;;;2.00;85.70;;;;;;4956305;28;20486;-53
2022/01/07 02:40:24;;;;;;;10.63;6.17;;;2.00;85.70;;;;;;4952638;28;20471;-52
2022/01/07 02:42:53;;;;;;;10.50;6.90;;;2.00;85.90;;;;;;4950080;28;21166;-54
2022/01/07 02:45:20;;;;;;;8.33;6.23;;;2.00;86.00;;;;;;4950633;28;20475;-53
2022/01/07 02:47:54;;;;;;;9.37;6.70;;;2.00;85.90;;;;;;4971640;28;20467;-53
2022/01/07 02:50:34;;;;;;;12.30;6.50;;;2.00;86.00;;;;;;4952813;28;21144;-53
2022/01/07 02:53:03;;;;;;;9.70;6.53;;;2.00;86.10;;;;;;4950734;28;20459;-54
2022/01/07 02:55:29;;;;;;;8.83;5.50;;;2.00;86.10;;;;;;4952986;28;20459;-54
2022/01/07 02:57:56;;;;;;;8.50;5.97;;;2.00;86.10;;;;;;4953554;28;20495;-53
2022/01/07 03:00:25;;;;;;;9.20;6.27;;;2.00;86.20;;;;;;4961657;28;20896;-53
2022/01/07 03:02:53;;;;;;;8.10;5.67;;;2.00;86.20;;;;;;4951162;28;20478;-54
2022/01/07 03:05:20;;;;;;;11.77;6.33;;;2.00;86.20;;;;;;4967755;28;20468;-53
2022/01/07 03:07:48;;;;;;;9.93;7.60;;;2.00;86.50;;;;;;4951763;28;20459;-53
2022/01/07 03:10:29;;;;;;;18.60;9.80;;;2.00;86.50;;;;;;4949511;28;20833;-53
2022/01/07 03:12:59;;;;;;;12.70;7.53;;;2.10;86.40;;;;;;4950196;28;20500;-53
2022/01/07 03:15:27;;;;;;;10.27;7.33;;;2.10;86.40;;;;;;4949389;28;20850;-52
2022/01/07 03:17:54;;;;;;;11.30;6.97;;;2.10;86.20;;;;;;4953562;28;20486;-53
2022/01/07 03:20:21;;;;;;;12.50;7.50;;;2.10;86.30;;;;;;4951204;28;20467;-51
2022/01/07 03:22:49;;;;;;;14.37;6.67;;;2.20;86.30;;;;;;4949944;28;20553;-52
2022/01/07 03:25:17;;;;;;;9.43;6.20;;;2.20;86.30;;;;;;4953350;28;20900;-51
2022/01/07 03:27:45;;;;;;;9.47;5.87;;;2.20;86.50;;;;;;4952468;28;20467;-51
2022/01/07 03:30:14;;;;;;;11.60;6.63;;;2.20;86.50;;;;;;4949113;28;20474;-51
2022/01/07 03:32:41;;;;;;;9.00;5.27;;;2.20;86.50;;;;;;4943293;28;20473;-50
2022/01/07 03:35:10;;;;;;;13.00;6.40;;;2.30;86.50;;;;;;4951845;28;20467;-50
2022/01/07 03:37:39;;;;;;;20.23;6.83;;;2.30;86.40;;;;;;4954153;28;20628;-51
2022/01/07 03:40:07;;;;;;;16.80;7.30;;;2.40;86.30;;;;;;4952546;28;21017;-50
2022/01/07 03:42:34;;;;;;;13.70;5.87;;;2.40;86.30;;;;;;4959470;28;20468;-50
2022/01/07 03:45:01;;;;;;;8.90;5.93;;;2.40;86.20;;;;;;4963785;28;20816;-50
2022/01/07 03:47:28;;;;;;;8.10;5.20;;;2.50;85.60;;;;;;4953034;28;20778;-49
2022/01/07 03:49:55;;;;;;;9.87;6.20;;;2.50;85.90;;;;;;4956503;28;20478;-50
2022/01/07 03:52:22;;;;;;;10.13;5.90;;;2.50;85.10;;;;;;4949070;28;20442;-50
2022/01/07 03:54:50;;;;;;;9.10;5.87;;;2.50;85.30;;;;;;4951191;28;20815;-50
2022/01/07 03:57:18;;;;;;;8.47;4.70;;;2.50;85.50;;;;;;4953419;28;20550;-50
2022/01/07 03:59:45;;;;;;;11.20;6.40;;;2.50;85.60;;;;;;4967397;28;20459;-51
2022/01/07 04:02:12;;;;;;;14.40;5.80;;;2.60;85.20;;;;;;4952493;28;20463;-49
2022/01/07 04:04:39;;;;;;;8.83;5.03;;;2.60;85.10;;;;;;4964927;28;20462;-50
2022/01/07 04:07:06;;;;;;;13.53;5.83;;;2.50;85.40;;;;;;4950992;28;20477;-49
2022/01/07 04:09:32;;;;;;;10.27;5.70;;;2.50;85.50;;;;;;4966130;28;20505;-50
2022/01/07 04:12:00;;;;;;;7.03;5.17;;;2.60;85.50;;;;;;4955274;28;20497;-50
2022/01/07 04:14:27;;;;;;;11.80;6.30;;;2.60;85.20;;;;;;4965579;28;20495;-50
2022/01/07 04:16:54;;;;;;;12.63;5.67;;;2.70;85.30;;;;;;4950256;28;20466;-51
2022/01/07 04:19:20;;;;;;;9.30;5.20;;;2.70;85.00;;;;;;4953568;28;21027;-50
2022/01/07 04:21:49;;;;;;;12.37;6.37;;;2.70;85.00;;;;;;4951380;28;21249;-50
2022/01/07 04:24:17;;;;;;;8.67;5.77;;;2.70;85.00;;;;;;4952792;28;20841;-50
2022/01/07 04:26:44;;;;;;;9.37;5.93;;;2.70;85.10;;;;;;4952230;28;20716;-50
2022/01/07 04:29:11;;;;;;;11.53;5.23;;;2.60;85.20;;;;;;4966841;28;20462;-49
2022/01/07 04:31:37;;;;;;;6.50;4.93;;;2.60;85.30;;;;;;4948399;28;21015;-50
2022/01/07 04:34:04;;;;;;;8.97;5.17;;;2.70;85.20;;;;;;4946858;28;20991;-50
2022/01/07 04:36:32;;;;;;;8.93;5.63;;;2.70;85.30;;;;;;4952282;28;20459;-50
2022/01/07 04:38:59;;;;;;;7.73;5.10;;;2.70;85.00;;;;;;4951335;28;20581;-50
2022/01/07 04:41:26;;;;;;;8.30;5.13;;;2.70;84.90;;;;;;4964084;28;20481;-50
2022/01/07 04:43:52;;;;;;;10.10;5.37;;;2.70;84.90;;;;;;4947198;28;20466;-49
2022/01/07 04:46:19;;;;;;;8.53;5.13;;;2.80;84.80;;;;;;4963006;28;21041;-50
2022/01/07 04:48:46;;;;;;;11.90;5.47;;;2.80;84.50;;;;;;4966528;28;20524;-50
2022/01/07 04:51:13;;;;;;;9.73;5.53;;;2.70;84.70;;;;;;4955078;28;20854;-50
2022/01/07 04:53:39;;;;;;;13.37;6.00;;;2.70;84.70;;;;;;4939922;28;20454;-50
2022/01/07 04:56:06;;;;;;;9.20;4.87;;;2.70;84.70;;;;;;4950705;28;20914;-49
2022/01/07 04:58:33;;;;;;;9.40;5.67;;;2.70;84.80;;;;;;4945462;28;20557;-50
2022/01/07 05:01:00;;;;;;;17.53;5.10;;;2.70;84.70;;;;;;4932137;28;20839;-50
2022/01/07 05:03:27;;;;;;;7.73;5.37;;;2.70;84.50;;;;;;4952884;28;20466;-50
2022/01/07 05:06:05;;;;;;;10.67;5.20;;;2.80;84.60;;;;;;4949754;28;20838;-50
2022/01/07 05:08:31;;;;;;;11.13;5.13;;;2.80;84.60;;;;;;4955283;28;20477;-49
2022/01/07 05:10:58;;;;;;;7.13;5.07;;;2.80;84.60;;;;;;4950055;28;20470;-50
2022/01/07 05:13:25;;;;;;;10.10;5.00;;;2.80;84.50;;;;;;4950952;28;20467;-50
2022/01/07 05:15:51;;;;;;;14.33;6.00;;;2.80;84.40;;;;;;4950591;28;20502;-50
2022/01/07 05:18:18;;;;;;;10.17;6.13;;;2.80;84.30;;;;;;4949717;28;20494;-49
2022/01/07 05:20:47;;;;;;;6.40;5.10;;;2.80;84.40;;;;;;4950393;28;20471;-50
2022/01/07 05:23:14;;;;;;;7.13;4.97;;;2.80;84.30;;;;;;4950016;28;20534;-50
2022/01/07 05:25:41;;;;;;;7.70;4.30;;;2.80;84.50;;;;;;4951199;28;21076;-50
2022/01/07 05:28:07;;;;;;;7.27;4.70;;;2.90;84.40;;;;;;4953319;28;20470;-49
2022/01/07 05:30:34;;;;;;;10.30;5.53;;;2.90;84.10;;;;;;4952087;28;20453;-50
2022/01/07 05:33:01;;;;;;;10.93;5.50;;;2.90;84.20;;;;;;4951981;28;20971;-50
2022/01/07 05:35:29;;;;;;;8.57;5.20;;;2.90;84.20;;;;;;4953119;28;20471;-50
2022/01/07 05:37:56;;;;;;;10.17;4.93;;;2.90;84.20;;;;;;4944676;28;20471;-51
2022/01/07 05:40:22;;;;;;;7.37;4.27;;;2.90;84.30;;;;;;4949894;28;20458;-50
2022/01/07 05:42:49;;;;;;;7.00;5.03;;;3.00;84.10;;;;;;4947828;28;20477;-50
2022/01/07 05:45:16;;;;;;;6.13;5.50;;;3.00;84.10;;;;;;4955634;28;20468;-50
2022/01/07 05:47:44;;;;;;;12.53;5.70;;;3.00;83.70;;;;;;4952214;28;20963;-49
2022/01/07 05:50:11;;;;;;;8.33;4.80;;;3.00;83.80;;;;;;4953422;28;20464;-49
2022/01/07 05:52:38;;;;;;;9.83;4.30;;;3.00;83.90;;;;;;4953509;28;20852;-50
2022/01/07 05:55:06;;;;;;;8.80;4.90;;;3.10;83.80;;;;;;4965886;28;20546;-50
2022/01/07 05:57:35;;;;;;;5.63;4.40;;;3.10;83.80;;;;;;4953205;28;20473;-50
2022/01/07 06:00:07;;;;;;;9.60;5.00;;;3.10;83.60;;;;;;4951677;28;21016;-50
2022/01/07 06:02:34;;;;;;;12.33;4.53;;;3.20;83.20;;;;;;4952065;28;20471;-51
2022/01/07 06:05:02;;;;;;;9.20;5.13;;;3.20;82.80;;;;;;4972152;28;20963;-53
2022/01/07 06:07:28;;;;;;;5.17;4.50;;;3.20;82.50;;;;;;4950548;28;20972;-54
2022/01/07 06:09:56;;;;;;;7.57;5.67;;;3.10;83.20;;;;;;4953098;28;20470;-53
2022/01/07 06:12:22;;;;;;;8.00;5.27;;;3.10;83.50;;;;;;4953144;28;20465;-53
2022/01/07 06:14:49;;;;;;;8.60;5.53;;;3.10;83.70;;;;;;4947993;28;20467;-53
2022/01/07 06:17:16;;;;;;;8.50;5.47;;;3.10;83.90;;;;;;4955026;28;20456;-54
2022/01/07 06:19:43;;;;;;;6.60;5.23;;;3.10;84.10;;;;;;4955454;28;20505;-53
2022/01/07 06:22:10;;;;;;;6.93;4.63;;;3.20;83.60;;;;;;4971041;28;20841;-52
2022/01/07 06:24:37;;;;;;;5.90;5.27;;;3.20;83.10;;;;;;4957859;28;20531;-52
2022/01/07 06:27:04;;;;;;;8.83;5.50;;;3.20;83.50;;;;;;4953826;28;20499;-53
2022/01/07 06:29:31;;;;;;;11.80;5.97;;;3.10;83.80;;;;;;4948968;28;20462;-53
2022/01/07 06:31:58;;;;;;;7.10;5.43;;;3.20;83.50;;;;;;4950360;28;20876;-53
2022/01/07 06:34:25;;;;;;;6.60;5.10;;;3.20;83.70;;;;;;4964060;28;20847;-53
2022/01/07 06:36:52;;;;;;;12.80;5.80;;;3.20;84.00;;;;;;4953096;28;20471;-53
2022/01/07 06:39:19;;;;;;;9.63;6.03;;;3.20;84.00;;;;;;4952866;28;20490;-53
2022/01/07 06:41:47;;;;;;;12.27;6.80;;;3.20;83.90;;;;;;4954716;28;20465;-53
2022/01/07 06:44:14;;;;;;;8.60;6.43;;;3.20;83.80;;;;;;4951085;28;20957;-53
2022/01/07 06:46:41;;;;;;;15.77;7.30;;;3.10;84.00;;;;;;4952961;28;20471;-54
2022/01/07 06:49:08;;;;;;;13.23;7.73;;;3.10;84.30;;;;;;4948448;28;20993;-53
2022/01/07 06:51:35;;;;;;;11.10;6.30;;;3.10;84.60;;;;;;4952374;28;20488;-52
2022/01/07 06:54:03;;;;;;;11.40;6.43;;;3.10;84.60;;;;;;4948195;28;20463;-54
2022/01/07 06:56:29;;;;;;;13.77;7.97;;;3.10;84.80;;;;;;4958402;28;20466;-53
2022/01/07 06:58:56;;;;;;;19.60;8.60;;;3.00;85.00;;;;;;4945641;28;20857;-53
2022/01/07 07:01:23;;;;;;;12.20;8.77;;;3.00;85.20;;;;;;4932299;28;21601;-53
2022/01/07 07:03:50;;;;;;;20.90;9.60;;;3.00;85.50;;;;;;4949491;28;21043;-53
2022/01/07 07:06:17;;;;;;;18.23;9.00;;;3.00;85.70;;;;;;4950476;28;20473;-52
2022/01/07 07:08:44;;;;;;;13.60;8.90;;;3.00;85.60;;;;;;4945777;28;20848;-53
2022/01/07 07:11:10;;;;;;;17.00;9.23;;;3.00;85.50;;;;;;4949405;28;20477;-53
2022/01/07 07:13:37;;;;;;;14.07;8.73;;;3.00;85.70;;;;;;4950267;28;20845;-53
2022/01/07 07:16:04;;;;;;;12.90;8.50;;;2.90;85.90;;;;;;4969005;28;20583;-53
2022/01/07 07:18:31;;;;;;;19.13;11.00;;;3.00;86.00;;;;;;4953978;28;20491;-53
2022/01/07 07:20:59;;;;;;;21.13;11.77;;;3.00;86.20;;;;;;4950186;28;20467;-53
2022/01/07 07:23:26;;;;;;;12.50;10.60;;;2.90;86.00;;;;;;4952013;28;20901;-53
2022/01/07 07:25:53;;;;;;;17.63;11.20;;;2.90;86.30;;;;;;4951489;28;20512;-53
2022/01/07 07:28:19;;;;;;;14.67;10.37;;;2.90;86.30;;;;;;4951188;28;20463;-53
2022/01/07 07:30:47;;;;;;;15.17;10.67;;;2.80;86.50;;;;;;4951860;28;20458;-53
2022/01/07 07:38:13;;;;;;;18.73;12.13;;;2.70;87.40;;;;;;4955894;28;20467;-53
2022/01/07 07:40:40;;;;;;;18.73;10.70;;;2.70;87.50;;;;;;4954152;28;20454;-53
2022/01/07 07:43:06;;;;;;;15.87;10.40;;;2.70;87.40;;;;;;4951341;28;20471;-53
2022/01/07 07:45:33;;;;;;;16.33;10.00;;;2.70;87.60;;;;;;4950764;28;20862;-53
2022/01/07 07:48:00;;;;;;;12.90;10.10;;;2.80;87.60;;;;;;4950547;28;20470;-53
2022/01/07 07:50:26;;;;;;;16.83;10.57;;;2.80;87.50;;;;;;4954180;28;20467;-53
2022/01/07 07:52:54;;;;;;;13.73;9.53;;;2.80;87.40;;;;;;4949227;28;20478;-53
2022/01/07 07:55:21;;;;;;;14.37;10.57;;;2.80;87.70;;;;;;4953356;28;20459;-53
2022/01/07 07:57:48;;;;;;;14.57;9.03;;;2.80;87.70;;;;;;4953565;28;20467;-53
2022/01/07 08:00:15;;;;;;;12.00;9.07;;;2.90;87.50;;;;;;4950806;28;20479;-53
2022/01/07 08:02:42;;;;;;;15.60;9.77;;;2.80;87.60;;;;;;4947773;28;20474;-53
2022/01/07 08:05:09;;;;;;;15.00;10.07;;;2.80;87.80;;;;;;4934830;28;20466;-53
2022/01/07 08:07:36;;;;;;;11.80;8.27;;;2.80;88.10;;;;;;4948776;28;20545;-53
2022/01/07 08:10:03;;;;;;;13.50;9.17;;;2.80;88.10;;;;;;4955856;28;20515;-53
2022/01/07 08:12:51;;;;;;;15.27;9.10;;;2.80;88.20;;;;;;4958049;28;20455;-54
2022/01/07 08:18:03;;;;;;;13.33;9.03;;;2.90;88.00;;;;;;4946720;28;20994;-52
2022/01/07 08:20:30;;;;;;;10.37;8.37;;;2.90;88.10;;;;;;4940397;28;20491;-53
2022/01/07 08:22:57;;;;;;;11.97;8.50;;;2.90;88.00;;;;;;4947966;28;21026;-53
2022/01/07 08:25:24;;;;;;;13.30;9.80;;;2.90;88.00;;;;;;4952437;28;20516;-53
2022/01/07 08:27:51;;;;;;;15.20;9.40;;;2.90;87.60;;;;;;4948647;28;20590;-53
2022/01/07 08:30:24;;;;;;;13.33;10.27;;;2.90;87.70;;;;;;4949760;28;20463;-53
2022/01/07 08:35:38;;;;;;;15.73;9.07;;;3.00;87.50;;;;;;4949329;28;20468;-53
2022/01/07 08:38:06;;;;;;;16.13;9.27;;;3.00;87.60;;;;;;4946442;28;20472;-53
2022/01/07 08:40:33;;;;;;;16.70;9.47;;;3.10;87.40;;;;;;4948327;28;20502;-54
2022/01/07 08:43:00;;;;;;;12.67;9.40;;;3.00;87.40;;;;;;4949003;28;20477;-54
2022/01/07 08:45:27;;;;;;;17.90;9.57;;;3.00;87.10;;;;;;4949686;28;20566;-52
2022/01/07 08:47:54;;;;;;;16.53;9.80;;;3.00;87.20;;;;;;4950224;28;21004;-52
2022/01/07 08:50:21;;;;;;;16.00;9.00;;;3.00;87.40;;;;;;4966444;28;20467;-51
2022/01/07 08:52:50;;;;;;;13.53;8.33;;;3.00;87.40;;;;;;4944524;28;20467;-52
2022/01/07 08:55:16;;;;;;;13.67;8.67;;;3.00;87.40;;;;;;4947671;28;20554;-53
2022/01/07 08:57:43;;;;;;;13.70;7.60;;;3.10;87.60;;;;;;4948809;28;21392;-51
2022/01/07 09:00:13;;;;;;;12.63;7.97;;;3.10;87.60;;;;;;4947684;28;20498;-51
2022/01/07 09:02:39;;;;;;;10.50;7.83;;;3.10;87.40;;;;;;4947366;28;20467;-52
2022/01/07 09:05:07;;;;;;;9.97;6.70;;;3.20;87.10;;;;;;4944972;28;20569;-52
2022/01/07 09:07:34;;;;;;;7.30;5.90;;;3.20;86.80;;;;;;4961731;28;20471;-52
2022/01/07 09:10:01;;;;;;;8.90;6.40;;;3.20;87.00;;;;;;4947431;28;20475;-51
2022/01/07 09:12:27;;;;;;;12.00;6.60;;;3.20;86.80;;;;;;4947599;28;20985;-51
2022/01/07 09:15:01;;;;;;;8.87;6.43;;;3.20;86.60;;;;;;4931923;28;20471;-51
2022/01/07 09:17:30;;;;;;;14.73;7.70;;;3.20;86.40;;;;;;4948213;28;20578;-51
2022/01/07 09:19:56;;;;;;;11.63;7.07;;;3.10;86.60;;;;;;4950338;28;21150;-51
2022/01/07 09:22:23;;;;;;;9.30;5.47;;;3.10;86.70;;;;;;4949999;28;20470;-51
2022/01/07 09:24:50;;;;;;;8.13;5.30;;;3.10;86.90;;;;;;4954130;28;20492;-53
2022/01/07 09:27:24;;;;;;;10.10;6.10;;;3.10;87.10;;;;;;4950233;28;20469;-53
2022/01/07 09:29:51;;;;;;;5.93;5.33;;;3.00;87.50;;;;;;4947712;28;20472;-53
2022/01/07 09:32:18;;;;;;;9.87;5.50;;;3.00;87.90;;;;;;4967376;28;20462;-53
2022/01/07 09:34:45;;;;;;;7.43;5.07;;;3.00;88.30;;;;;;4954868;28;20556;-53
2022/01/07 09:37:11;;;;;;;7.20;5.23;;;3.10;88.00;;;;;;4967913;28;20524;-52
2022/01/07 09:39:39;;;;;;;11.07;4.73;;;3.10;87.70;;;;;;4957359;28;20482;-52
2022/01/07 09:42:07;;;;;;;6.07;4.30;;;3.10;87.70;;;;;;4950516;28;21564;-52
2022/01/07 09:44:38;;;;;;;5.20;4.43;;;3.20;87.80;;;;;;4950093;28;20881;-52
2022/01/07 09:47:07;;;;;;;5.90;3.90;;;3.20;87.00;;;;;;4950489;28;20482;-51
2022/01/07 09:49:34;;;;;;;6.90;3.40;;;3.20;87.40;;;;;;4952761;28;20471;-53
2022/01/07 09:52:02;;;;;;;8.03;3.77;;;3.10;87.60;;;;;;4950418;28;20919;-53
2022/01/07 09:54:29;;;;;;;6.23;3.70;;;3.20;88.00;;;;;;4951573;28;20493;-51
2022/01/07 09:56:55;;;;;;;4.50;3.80;;;3.30;88.00;;;;;;4950398;28;20557;-52
2022/01/07 09:59:22;;;;;;;8.63;4.30;;;3.30;87.60;;;;;;4950883;28;20503;-52
2022/01/07 10:02:03;;;;;;;6.50;4.87;;;3.30;87.50;;;;;;4951917;28;20473;-52
2022/01/07 10:04:33;;;;;;;8.23;4.60;;;3.30;88.00;;;;;;4945591;28;20467;-52
2022/01/07 10:07:22;;;;;;;8.60;4.13;;;3.40;87.70;;;;;;4943732;28;20505;-52
2022/01/07 10:10:07;;;;;;;5.83;3.73;;;3.40;86.90;;;;;;4940974;28;20472;-52
2022/01/07 10:12:49;;;;;;;5.83;4.03;;;3.40;87.50;;;;;;4949475;28;20471;-52
2022/01/07 10:15:19;;;;;;;8.10;4.00;;;3.50;88.50;;;;;;4952841;28;20459;-52
2022/01/07 10:18:03;;;;;;;7.30;4.53;;;3.50;87.90;;;;;;4955249;28;20534;-51
2022/01/07 10:20:38;;;;;;;5.40;4.03;;;3.60;87.80;;;;;;4942439;28;20500;-52
2022/01/07 10:23:06;;;;;;;9.53;4.33;;;3.60;87.50;;;;;;4949704;28;20491;-52
2022/01/07 10:25:38;;;;;;;5.90;4.40;;;3.70;87.40;;;;;;4954134;28;20478;-53
2022/01/07 10:28:16;;;;;;;4.97;3.90;;;3.70;87.50;;;;;;4950445;28;20469;-53
2022/01/07 10:30:50;;;;;;;4.83;3.53;;;3.80;87.80;;;;;;4965216;28;20464;-53
2022/01/07 10:33:21;;;;;;;3.70;3.03;;;3.80;87.40;;;;;;4952907;28;20537;-53
2022/01/07 10:36:15;;;;;;;4.00;3.70;;;3.90;87.20;;;;;;4951269;28;20467;-53
2022/01/07 10:38:46;;;;;;;4.37;3.03;;;3.90;86.90;;;;;;4949161;28;20470;-53
2022/01/07 10:41:13;;;;;;;6.43;3.90;;;4.00;85.60;;;;;;4950876;28;20498;-53
2022/01/07 10:43:41;;;;;;;4.07;3.73;;;4.00;84.60;;;;;;4955034;28;20902;-53
2022/01/07 10:46:11;;;;;;;7.40;3.97;;;3.90;83.80;;;;;;4955876;28;20936;-53
2022/01/07 10:48:39;;;;;;;3.83;3.50;;;3.90;84.40;;;;;;4950603;28;20459;-53
2022/01/07 10:51:09;;;;;;;3.90;3.50;;;3.90;84.10;;;;;;4964412;28;20471;-53
2022/01/07 10:53:38;;;;;;;4.93;3.67;;;3.80;84.50;;;;;;4947452;28;20969;-53
2022/01/07 10:56:06;;;;;;;6.50;4.40;;;3.80;85.20;;;;;;4952058;28;20455;-52
2022/01/07 10:58:53;;;;;;;6.13;3.73;;;3.80;85.20;;;;;;4952554;28;21047;-53
2022/01/07 11:01:20;;;;;;;7.67;4.10;;;3.80;85.90;;;;;;4948893;28;20495;-53
2022/01/07 11:03:50;;;;;;;6.00;4.47;;;3.80;85.70;;;;;;4952937;28;20523;-52
2022/01/07 11:06:17;;;;;;;4.70;3.67;;;3.80;85.70;;;;;;4949390;28;20467;-53
2022/01/07 11:08:48;;;;;;;6.07;4.43;;;3.80;84.80;;;;;;4950508;28;20463;-53
2022/01/07 11:11:15;;;;;;;4.83;4.13;;;3.80;85.30;;;;;;4951651;28;20471;-52
2022/01/07 11:13:42;;;;;;;4.97;3.67;;;3.80;85.50;;;;;;4951489;28;20465;-53
2022/01/07 11:16:09;;;;;;;4.73;4.23;;;3.80;85.50;;;;;;4953075;28;20467;-53
2022/01/07 11:18:39;;;;;;;5.83;4.00;;;3.80;84.90;;;;;;4952652;28;20470;-52
2022/01/07 11:21:07;;;;;;;5.30;3.97;;;3.80;84.70;;;;;;4951544;28;20589;-53
2022/01/07 11:23:37;;;;;;;6.60;3.73;;;3.80;84.90;;;;;;4951147;28;20479;-52
2022/01/07 11:26:12;;;;;;;5.40;4.00;;;3.90;84.40;;;;;;4952984;28;20534;-50
2022/01/07 11:28:58;;;;;;;4.17;3.77;;;3.80;85.40;;;;;;4950622;28;20470;-51
2022/01/07 11:31:27;;;;;;;6.97;4.20;;;3.80;85.50;;;;;;4951764;28;20473;-51
2022/01/07 11:34:24;;;;;;;4.93;3.80;;;3.80;85.70;;;;;;4952075;28;20508;-51
2022/01/07 11:36:51;;;;;;;4.70;3.70;;;3.90;84.30;;;;;;4955595;28;20466;-51
2022/01/07 11:39:20;;;;;;;6.27;4.17;;;3.90;85.40;;;;;;4950119;28;20463;-50
2022/01/07 11:41:58;;;;;;;6.73;4.80;;;3.90;86.30;;;;;;4948130;28;20470;-50
2022/01/07 11:44:29;;;;;;;7.93;5.40;;;3.90;86.40;;;;;;4962998;28;20471;-51
2022/01/07 11:47:19;;;;;;;7.67;4.93;;;4.00;85.90;;;;;;4930881;28;20471;-51
2022/01/07 11:50:00;;;;;;;6.53;4.80;;;3.90;86.10;;;;;;4950775;28;20861;-50
2022/01/07 11:52:29;;;;;;;8.17;5.73;;;4.00;86.20;;;;;;4939967;28;21051;-52
2022/01/07 11:55:36;;;;;;;6.83;4.80;;;4.00;86.00;;;;;;4951455;28;20855;-51
2022/01/07 11:58:11;;;;;;;6.67;5.27;;;4.10;85.40;;;;;;4944927;28;20463;-50
2022/01/07 12:00:58;;;;;;;9.90;4.80;;;4.10;84.80;;;;;;4946060;28;21016;-51
2022/01/07 12:03:32;;;;;;;4.97;4.47;;;4.00;85.50;;;;;;4965354;28;21037;-51
2022/01/07 12:06:24;;;;;;;8.20;4.97;;;4.00;85.60;;;;;;4945936;28;20458;-51
2022/01/07 12:09:07;;;;;;;6.83;5.20;;;4.10;84.90;;;;;;4948934;28;20461;-52
2022/01/07 12:11:44;;;;;;;6.37;5.17;;;4.00;85.50;;;;;;4946492;28;21002;-50
2022/01/07 12:14:15;;;;;;;12.83;4.80;;;4.00;85.40;;;;;;4963892;28;22260;-52
2022/01/07 12:16:49;;;;;;;7.47;5.83;;;4.00;85.80;;;;;;4944834;28;20467;-51
2022/01/07 12:19:19;;;;;;;8.57;5.87;;;4.00;85.30;;;;;;4944812;28;20907;-51
2022/01/07 12:21:49;;;;;;;5.67;5.07;;;4.00;85.40;;;;;;4950468;28;20495;-51
2022/01/07 12:24:27;;;;;;;5.57;5.07;;;4.00;85.40;;;;;;4948864;28;20467;-51
2022/01/07 12:27:09;;;;;;;8.80;5.47;;;4.00;85.30;;;;;;4950965;28;20458;-54
2022/01/07 12:29:39;;;;;;;7.30;5.87;;;4.00;85.90;;;;;;4949310;28;20454;-53
2022/01/07 12:32:09;;;;;;;6.40;4.90;;;4.10;85.60;;;;;;4950874;28;20450;-53
2022/01/07 12:34:43;;;;;;;6.30;4.37;;;4.20;85.20;;;;;;4947686;28;20862;-54
2022/01/07 12:37:15;;;;;;;4.80;4.40;;;4.20;84.90;;;;;;4949893;28;20471;-53
2022/01/07 12:39:51;;;;;;;6.50;4.67;;;4.10;85.10;;;;;;4956409;28;20813;-53
2022/01/07 12:42:19;;;;;;;5.47;4.97;;;4.20;84.80;;;;;;4952883;28;20458;-53
2022/01/07 12:44:53;;;;;;;4.30;3.90;;;4.20;84.40;;;;;;4966773;28;20871;-53
2022/01/07 12:47:22;;;;;;;4.93;3.57;;;4.20;84.80;;;;;;4963924;28;20470;-53
2022/01/07 12:49:55;;;;;;;5.07;3.57;;;4.20;84.30;;;;;;4946094;28;20478;-53
2022/01/07 12:52:26;;;;;;;4.47;4.03;;;4.20;83.50;;;;;;4946745;28;20457;-53
2022/01/07 12:55:00;;;;;;;5.00;3.67;;;4.20;83.00;;;;;;4952783;28;20458;-54
2022/01/07 12:57:42;;;;;;;3.90;3.50;;;4.20;83.60;;;;;;4953396;28;20467;-55
2022/01/07 13:00:11;;;;;;;4.30;3.03;;;4.20;83.80;;;;;;4952138;28;20496;-51
2022/01/07 13:02:43;;;;;;;4.27;3.10;;;4.20;84.00;;;;;;4953005;28;20820;-50
2022/01/07 13:05:34;;;;;;;3.63;3.30;;;4.20;84.00;;;;;;4966470;28;20459;-51
2022/01/07 13:08:07;;;;;;;3.20;2.90;;;4.20;84.10;;;;;;4963806;28;20469;-50
2022/01/07 13:10:39;;;;;;;3.23;3.00;;;4.20;83.90;;;;;;4966817;28;20485;-51